Aeroporto :
LOGIN :

Iscrizione | Disclaimer

   EN    FR    IT 

 










Sommario :    VFR   VFR Marginale   IFR   IFR Intensivo   IFR Molto Intensivo
Visibilità : 
Base nubi : 
>= 8 km
>= 3000ft
5 / 8 km
1000 / 3000 ft
1500m / 5 km
500 / 1000 ft
800 / 1500m
200 / 500 ft
< 800m
< 200 ft
Simboli :   Temporali  Nebbia  Neve Forte  Precipitazioni Forti  Vento > 20 kt
SIGMETs :   Varie  Temporali  Ghiacco  Turbolenza  Onda orograficha  Ceneri Vulcaniche






- Altitudine del aeroporto : 423 ft
- Codice IATA : PIS


LFBI - Poitiers

ULTIMO METAR :
  • 301500Z AUTO 07010KT 030V120 CAVOK 25/06 Q1015 NOSIG

METARs OBSOLETI :
  • 301430Z AUTO 07010KT 010V130 CAVOK 26/05 Q1016 NOSIG
  • 301400Z AUTO 07011KT 040V120 CAVOK 25/07 Q1016 NOSIG
  • 301330Z AUTO 07010KT 330V110 CAVOK 25/06 Q1016 NOSIG
  • 301300Z AUTO 07009KT 030V120 CAVOK 25/07 Q1016 NOSIG
  • 301230Z AUTO 09010KT 050V130 CAVOK 24/07 Q1016 NOSIG

TAF TAF LFBI
Valido dal 30 a 12 ore il 31 a 12 ore UTC


301100Z 3012/3112 07010KT CAVOK



MetMap, La meteo Aeronautica in un colpo d'occhio ! - Copyright ORBIFLY Dicembre 2007 - Disclaimer

ORBIFLY MET'MAP TEAM :

Programmazione e sviluppo : Alexandra Zaïnal
Concezione : Baudouin d'Aumeries
Aiuto per la programmazione : Marc-Olivier Méhu
Supporto tecnico e logistico : Manuel Goepfert
Aiuto per la traduzione : Arnaldo La Scala

Contatto : metmap@orbifly.com




FONTI E CREDITI :

   NOAA